Time;durP1;ratioP1;P1;durP2;ratioP2;P2;SDS_P1;SDS_P2;PMS_P1;PMS_P2;Temp;Humidity;BMP_temperature;BMP_pressure;BME280_temperature;BME280_humidity;BME280_pressure;Samples;Min_cycle;Max_cycle;Signal;HPM_P1;HPM_P2
2024/01/04 15:19:49;;;;;;;2.15;1.40;;;;;;;10.62;48.10;91776.16;5170277;27;20399;-77
2024/01/04 15:22:15;;;;;;;1.50;1.20;;;;;;;10.37;48.42;91767.91;5132288;27;20055;-78
2024/01/04 15:24:41;;;;;;;1.35;1.15;;;;;;;10.31;48.65;91777.00;5110622;28;20039;-78
2024/01/04 15:27:08;;;;;;;1.85;1.20;;;;;;;10.22;48.94;91781.34;5128683;28;20031;-78
2024/01/04 15:29:36;;;;;;;1.65;1.20;;;;;;;10.07;48.77;91782.53;5128758;28;20027;-78
2024/01/04 15:32:01;;;;;;;1.98;1.30;;;;;;;9.83;49.82;91771.63;5129821;28;20061;-78
2024/01/04 15:34:27;;;;;;;1.50;1.20;;;;;;;9.71;50.67;91780.78;5128447;28;20406;-77
2024/01/04 15:36:52;;;;;;;1.77;1.25;;;;;;;9.55;51.67;91774.34;5124092;28;20053;-77
2024/01/04 15:39:18;;;;;;;2.58;1.50;;;;;;;9.41;52.01;91779.59;5109467;28;20480;-78
2024/01/04 15:41:44;;;;;;;2.28;1.40;;;;;;;9.24;51.83;91767.19;5117008;28;20115;-77
2024/01/04 15:44:11;;;;;;;1.98;1.35;;;;;;;9.16;51.75;91770.50;5107958;28;20039;-78
2024/01/04 15:46:37;;;;;;;1.38;1.20;;;;;;;8.96;52.87;91767.28;5107373;28;20056;-77
2024/01/04 15:49:03;;;;;;;2.03;1.25;;;;;;;8.84;52.70;91772.19;5115254;28;20066;-77
2024/01/04 15:51:32;;;;;;;4.75;1.30;;;;;;;8.75;52.87;91782.53;5120483;28;20134;-78
2024/01/04 15:53:58;;;;;;;3.05;1.20;;;;;;;8.55;53.22;91786.31;5114704;28;20877;-77
2024/01/04 15:56:24;;;;;;;2.25;1.35;;;;;;;8.44;51.56;91784.19;5121866;28;20034;-78
2024/01/04 15:58:50;;;;;;;1.17;1.08;;;;;;;8.40;51.71;91786.63;5114668;28;20044;-77
2024/01/04 16:01:15;;;;;;;1.20;1.10;;;;;;;8.27;52.51;91784.75;5113681;28;20502;-76
2024/01/04 16:03:41;;;;;;;1.38;1.10;;;;;;;8.22;50.91;91787.44;5101505;28;20036;-77
2024/01/04 16:06:07;;;;;;;1.10;1.00;;;;;;;8.08;50.43;91777.00;5101254;28;20039;-76
2024/01/04 16:08:33;;;;;;;1.20;1.10;;;;;;;7.95;51.38;91788.94;5123962;28;20106;-77
2024/01/04 16:10:59;;;;;;;3.22;1.30;;;;;;;7.86;51.33;91793.28;5120348;28;20127;-78
2024/01/04 16:13:25;;;;;;;1.98;1.17;;;;;;;7.80;50.73;91791.81;5098865;28;20036;-79
2024/01/04 16:15:50;;;;;;;1.00;0.90;;;;;;;7.75;50.93;91794.50;5097819;28;20042;-79
2024/01/04 16:18:16;;;;;;;0.93;0.93;;;;;;;7.61;49.42;91790.00;5120855;28;20049;-80
2024/01/04 16:20:42;;;;;;;1.10;1.00;;;;;;;7.61;49.27;91794.44;5100449;28;20043;-78
2024/01/04 16:23:09;;;;;;;0.93;0.93;;;;;;;7.51;49.24;91792.75;5104758;28;20035;-78
2024/01/04 16:25:35;;;;;;;1.67;1.10;;;;;;;7.52;49.77;91799.53;5114569;28;20031;-79
2024/01/04 16:28:01;;;;;;;1.85;1.40;;;;;;;7.44;50.35;91800.16;5123170;28;20038;-78
2024/01/04 16:30:27;;;;;;;7.43;3.83;;;;;;;7.34;49.72;91797.69;5113145;28;20031;-78
2024/01/04 16:32:52;;;;;;;15.63;7.93;;;;;;;7.28;49.38;91800.38;5103271;28;20403;-79
2024/01/04 16:35:18;;;;;;;10.70;6.03;;;;;;;7.13;50.86;91807.63;5102243;28;20145;-77
2024/01/04 16:37:44;;;;;;;8.32;4.28;;;;;;;7.03;50.55;91804.09;5101934;28;20062;-77
2024/01/04 16:40:11;;;;;;;4.53;1.90;;;;;;;6.99;51.38;91805.72;5082399;28;20035;-77
2024/01/04 16:42:37;;;;;;;2.15;1.40;;;;;;;6.98;55.68;91808.59;5109025;28;20122;-76
2024/01/04 16:45:03;;;;;;;1.83;1.33;;;;;;;6.84;56.74;91809.25;5108228;28;20106;-77
2024/01/04 16:47:28;;;;;;;2.42;1.60;;;;;;;6.81;57.41;91809.06;5109793;28;20118;-77
2024/01/04 16:49:56;;;;;;;2.78;1.80;;;;;;;6.68;58.37;91805.31;5110387;28;20141;-77
2024/01/04 16:52:22;;;;;;;5.90;3.40;;;;;;;6.56;57.79;91816.09;5102075;28;20024;-77
2024/01/04 16:54:48;;;;;;;8.70;3.58;;;;;;;6.51;56.84;91820.56;5100914;28;20080;-77
2024/01/04 16:57:14;;;;;;;2.38;1.30;;;;;;;6.45;56.21;91823.25;5102075;28;20035;-77
2024/01/04 16:59:39;;;;;;;2.25;1.27;;;;;;;6.36;55.66;91818.94;5104537;28;20056;-77
2024/01/04 17:02:05;;;;;;;4.03;2.75;;;;;;;6.39;56.48;91824.34;5106483;28;20498;-76
2024/01/04 17:04:31;;;;;;;4.90;3.92;;;;;;;6.37;55.18;91826.47;5104183;28;20420;-77
2024/01/04 17:06:58;;;;;;;4.90;3.60;;;;;;;6.35;54.35;91833.75;5109549;28;20058;-77
2024/01/04 17:09:25;;;;;;;3.08;1.55;;;;;;;6.33;55.71;91843.66;5105136;28;20044;-77
2024/01/04 17:11:52;;;;;;;4.00;1.38;;;;;;;6.24;55.34;91843.47;5105037;28;20164;-77
2024/01/04 17:14:17;;;;;;;1.35;1.20;;;;;;;6.20;56.20;91841.69;5097382;28;20040;-77
2024/01/04 17:16:43;;;;;;;3.60;1.92;;;;;;;6.16;59.55;91841.47;5095351;28;20024;-77
2024/01/04 17:19:09;;;;;;;2.60;1.70;;;;;;;6.20;62.14;91846.91;5103392;28;20067;-77
2024/01/04 17:21:35;;;;;;;3.85;1.75;;;;;;;6.16;64.91;91840.69;5108137;28;20040;-77
2024/01/04 17:24:01;;;;;;;3.88;2.08;;;;;;;6.16;65.27;91851.09;5079465;28;20228;-77
2024/01/04 17:26:26;;;;;;;4.20;2.75;;;;;;;6.16;66.73;91843.28;5093606;28;20043;-76
2024/01/04 17:28:52;;;;;;;4.40;2.75;;;;;;;6.22;67.23;91840.38;5086679;28;20049;-78
2024/01/04 17:31:19;;;;;;;4.90;3.03;;;;;;;6.18;68.07;91833.41;5086757;28;20425;-77
2024/01/04 17:33:46;;;;;;;3.60;2.10;;;;;;;6.19;68.57;91834.94;5069601;28;20089;-77
2024/01/04 17:36:14;;;;;;;2.92;1.65;;;;;;;6.16;68.12;91844.06;5102480;28;20040;-77
2024/01/04 17:38:40;;;;;;;3.17;1.85;;;;;;;6.14;69.98;91850.59;5090816;28;20048;-77
2024/01/04 17:41:07;;;;;;;8.05;4.05;;;;;;;6.10;70.69;91846.97;5108045;28;20489;-78
2024/01/04 17:43:32;;;;;;;13.40;5.47;;;;;;;6.09;70.33;91850.63;5069317;28;20035;-79
2024/01/04 17:45:59;;;;;;;15.48;6.90;;;;;;;5.96;71.17;91845.00;5105195;28;20518;-78
2024/01/04 17:48:24;;;;;;;9.20;5.28;;;;;;;5.89;70.85;91841.16;5103781;28;20043;-78
2024/01/04 17:50:50;;;;;;;10.75;5.90;;;;;;;5.79;71.24;91845.38;5103215;28;20043;-79
2024/01/04 17:53:16;;;;;;;8.13;4.50;;;;;;;5.71;72.13;91843.38;5108180;28;20130;-78
2024/01/04 17:55:42;;;;;;;9.27;4.00;;;;;;;5.66;72.03;91847.84;5109675;28;20027;-79
2024/01/04 17:58:08;;;;;;;6.75;3.42;;;;;;;5.57;71.81;91845.81;5103893;28;20111;-80
2024/01/04 18:00:34;;;;;;;6.28;2.70;;;;;;;5.51;73.59;91836.50;5089426;28;20513;-80
2024/01/04 18:03:00;;;;;;;5.53;2.35;;;;;;;5.52;73.57;91843.25;5075784;28;20043;-80
2024/01/04 18:05:26;;;;;;;3.72;2.20;;;;;;;5.49;73.45;91854.16;5094637;28;20394;-80
2024/01/04 18:07:53;;;;;;;4.57;2.85;;;;;;;5.43;72.97;91856.03;5108012;28;20031;-79
2024/01/04 18:10:19;;;;;;;4.97;3.13;;;;;;;5.39;72.71;91856.84;5107225;28;20114;-81
2024/01/04 18:12:44;;;;;;;5.53;3.75;;;;;;;5.31;72.43;91857.38;5115188;28;20067;-80
2024/01/04 18:15:10;;;;;;;4.90;3.10;;;;;;;5.29;73.08;91862.06;5096406;28;20106;-81
2024/01/04 18:17:36;;;;;;;4.35;2.40;;;;;;;5.20;73.64;91861.84;5115991;28;20404;-79
2024/01/04 18:20:05;;;;;;;2.70;1.77;;;;;;;5.14;75.42;91857.75;5093572;28;20039;-78
2024/01/04 18:22:37;;;;;;;3.05;1.70;;;;;;;5.13;75.00;91871.75;5070632;28;20047;-79
2024/01/04 18:25:04;;;;;;;;;;;;;;;5.13;75.23;91879.53;5073411;28;20116;-80
2024/01/04 18:27:33;;;;;;;2.35;1.58;;;;;;;5.08;73.97;91875.16;5112298;28;19918;-81
2024/01/04 18:29:59;;;;;;;1.98;1.38;;;;;;;5.01;73.91;91872.84;5097860;28;20074;-81
2024/01/04 18:32:26;;;;;;;2.13;1.40;;;;;;;5.02;73.21;91876.22;5115416;28;20031;-81
2024/01/04 18:34:52;;;;;;;1.90;1.17;;;;;;;4.98;73.49;91857.06;5117338;28;20122;-81
2024/01/04 18:37:18;;;;;;;3.05;1.30;;;;;;;5.00;74.01;91857.56;5108809;28;20031;-82
2024/01/04 18:39:43;;;;;;;1.90;1.30;;;;;;;4.96;74.40;91851.34;5094654;28;20522;-83
2024/01/04 18:42:09;;;;;;;1.75;1.20;;;;;;;4.96;73.90;91840.97;5092216;28;20047;-80
2024/01/04 18:44:36;;;;;;;2.63;1.63;;;;;;;4.97;73.21;91837.34;5114092;28;20031;-79
2024/01/04 18:47:02;;;;;;;5.63;2.90;;;;;;;4.89;71.90;91840.50;5089974;28;20418;-81
2024/01/04 18:49:27;;;;;;;4.40;2.20;;;;;;;4.93;69.80;91849.28;5095260;28;20057;-79
2024/01/04 18:51:55;;;;;;;5.55;2.28;;;;;;;4.87;67.32;91848.53;5077215;28;20043;-82
2024/01/04 18:54:21;;;;;;;6.32;2.42;;;;;;;4.84;65.73;91869.03;5108457;28;20128;-80
2024/01/04 18:56:48;;;;;;;3.53;2.00;;;;;;;4.79;65.57;91868.00;5093975;28;20126;-81
2024/01/04 18:59:17;;;;;;;3.50;1.92;;;;;;;4.78;64.64;91871.66;5078146;28;20032;-79
2024/01/04 19:01:46;;;;;;;2.40;1.60;;;;;;;4.73;63.72;91861.31;5108432;28;20108;-79
2024/01/04 19:04:12;;;;;;;1.40;1.20;;;;;;;4.73;63.92;91861.31;5114557;28;20031;-80
2024/01/04 19:06:37;;;;;;;1.75;1.20;;;;;;;4.72;64.23;91864.16;5114806;28;20453;-79
2024/01/04 19:09:03;;;;;;;2.13;1.50;;;;;;;4.71;62.97;91873.75;5078580;28;20047;-80
2024/01/04 19:11:29;;;;;;;4.50;2.50;;;;;;;4.69;62.65;91878.44;5107778;28;20126;-80
2024/01/04 19:13:54;;;;;;;4.50;2.33;;;;;;;4.65;62.88;91881.81;5096545;28;20054;-80
2024/01/04 19:16:21;;;;;;;3.50;1.90;;;;;;;4.53;63.19;91869.16;5110905;28;20542;-81
2024/01/04 19:18:47;;;;;;;1.98;1.27;;;;;;;4.62;63.67;91885.72;5113904;28;20481;-80
2024/01/04 19:21:13;;;;;;;2.85;1.50;;;;;;;4.59;63.67;91881.03;5092606;28;20036;-79
2024/01/04 19:23:39;;;;;;;1.63;1.20;;;;;;;4.61;64.10;91881.56;5074458;28;20043;-78
2024/01/04 19:26:09;;;;;;;19.35;9.38;;;;;;;4.61;64.68;91894.50;5089643;28;20040;-79
2024/01/04 19:28:35;;;;;;;21.25;11.15;;;;;;;4.59;64.74;91894.78;5073931;28;20472;-79
2024/01/04 19:31:02;;;;;;;10.48;4.90;;;;;;;4.58;64.59;91898.41;5113624;28;20104;-79
2024/01/04 19:33:27;;;;;;;4.93;2.75;;;;;;;4.57;64.60;91890.88;5113604;28;20830;-80
2024/01/04 19:35:53;;;;;;;3.53;1.83;;;;;;;4.60;64.79;91890.38;5113974;28;20365;-79
2024/01/04 19:38:18;;;;;;;3.60;2.08;;;;;;;4.61;65.06;91894.50;5114135;28;20051;-79
2024/01/04 19:40:44;;;;;;;6.88;4.07;;;;;;;4.58;65.32;91897.66;5117564;28;20035;-80
2024/01/04 19:43:10;;;;;;;6.47;4.00;;;;;;;4.56;65.13;91895.31;5100458;28;20048;-80
2024/01/04 19:45:36;;;;;;;12.13;7.13;;;;;;;4.51;66.16;91897.91;5116584;28;20031;-81
2024/01/04 19:48:02;;;;;;;5.43;3.30;;;;;;;4.46;66.71;91916.06;5112461;28;20059;-81
2024/01/04 19:50:27;;;;;;;3.72;2.05;;;;;;;4.37;66.46;91905.47;5112535;28;20038;-79
2024/01/04 19:52:53;;;;;;;4.03;2.50;;;;;;;4.35;67.27;91910.13;5109575;28;20055;-79
2024/01/04 19:55:19;;;;;;;3.97;2.15;;;;;;;4.31;67.22;91916.88;5104380;28;20398;-79
2024/01/04 19:57:44;;;;;;;2.70;1.60;;;;;;;4.25;67.93;91920.50;5083745;28;20188;-81
2024/01/04 20:00:11;;;;;;;3.50;2.13;;;;;;;4.17;67.91;91908.84;5105642;28;20056;-80
2024/01/04 20:02:39;;;;;;;4.38;2.63;;;;;;;4.16;67.51;91916.88;5111197;28;20028;-80
2024/01/04 20:05:05;;;;;;;3.33;1.92;;;;;;;4.11;68.79;91922.84;5115228;28;20042;-80
2024/01/04 20:07:31;;;;;;;2.65;1.70;;;;;;;4.07;68.83;91926.97;5082971;28;20093;-81
2024/01/04 20:09:56;;;;;;;3.80;1.95;;;;;;;4.02;68.07;91916.63;5081495;28;20041;-79
2024/01/04 20:12:22;;;;;;;4.03;2.08;;;;;;;3.95;68.00;91913.53;5111029;28;20054;-80
2024/01/04 20:14:48;;;;;;;3.15;1.80;;;;;;;3.91;68.30;91917.66;5116507;28;20702;-80
2024/01/04 20:17:16;;;;;;;2.53;1.50;;;;;;;3.89;68.38;91924.91;5118841;28;20043;-79
2024/01/04 20:19:41;;;;;;;2.78;1.67;;;;;;;3.89;69.00;91917.91;5079698;28;20044;-81
2024/01/04 20:22:11;;;;;;;2.80;1.60;;;;;;;3.85;69.24;91913.50;5116326;28;20032;-80
2024/01/04 20:24:39;;;;;;;6.68;3.42;;;;;;;3.84;69.84;91910.16;5097503;28;20114;-80
2024/01/04 20:27:05;;;;;;;7.10;4.40;;;;;;;3.85;70.18;91914.31;5078248;28;20039;-78
2024/01/04 20:29:32;;;;;;;5.13;3.00;;;;;;;3.84;70.67;91920.50;5113807;28;20027;-79
2024/01/04 20:31:58;;;;;;;4.70;2.92;;;;;;;3.80;70.59;91923.88;5113162;28;20028;-79
2024/01/04 20:34:24;;;;;;;3.35;2.08;;;;;;;3.79;70.47;91923.09;5095248;28;20054;-78
2024/01/04 20:36:54;;;;;;;2.30;1.60;;;;;;;3.80;69.72;91911.69;5095143;28;20032;-79
2024/01/04 20:39:20;;;;;;;3.25;1.70;;;;;;;3.82;68.08;91919.22;5114044;28;20039;-80
2024/01/04 20:41:47;;;;;;;4.07;1.98;;;;;;;3.88;67.42;91924.13;5114080;28;20103;-80
2024/01/04 20:44:13;;;;;;;4.35;2.58;;;;;;;3.93;66.27;91929.31;5116569;28;20023;-80
2024/01/04 20:46:39;;;;;;;3.90;2.22;;;;;;;4.00;66.27;91938.63;5115592;28;20368;-79
2024/01/04 20:49:05;;;;;;;4.20;2.38;;;;;;;3.96;66.43;91933.19;5096009;28;20093;-78
2024/01/04 20:51:31;;;;;;;4.18;2.22;;;;;;;4.02;66.33;91931.41;5096843;28;20031;-80
2024/01/04 20:53:56;;;;;;;4.50;2.53;;;;;;;4.06;65.73;91935.03;5095545;28;20036;-79
2024/01/04 20:56:22;;;;;;;3.47;2.00;;;;;;;4.08;66.21;91932.94;5098802;28;20054;-79
2024/01/04 20:58:47;;;;;;;2.70;1.65;;;;;;;4.07;66.61;91924.38;5116142;28;20063;-79
2024/01/04 21:01:13;;;;;;;2.97;1.80;;;;;;;4.06;67.08;91920.25;5112285;28;20066;-80
2024/01/04 21:03:39;;;;;;;1.65;1.20;;;;;;;4.09;63.53;91911.19;5095548;28;20061;-80
2024/01/04 21:06:06;;;;;;;2.00;1.27;;;;;;;4.18;63.31;91909.63;5110950;28;20043;-79
2024/01/04 21:08:32;;;;;;;2.35;1.17;;;;;;;4.28;62.50;91907.03;5104357;28;20084;-78
2024/01/04 21:10:58;;;;;;;1.55;1.20;;;;;;;4.28;63.53;91906.22;5112581;28;20048;-79
2024/01/04 21:13:24;;;;;;;33.33;14.30;;;;;;;4.33;62.67;91907.03;5104733;28;20533;-79
2024/01/04 21:15:49;;;;;;;35.00;16.13;;;;;;;4.35;62.91;91904.19;5093393;28;20059;-79
2024/01/04 21:18:15;;;;;;;8.45;4.03;;;;;;;4.31;64.26;91903.91;5105212;28;20047;-79
2024/01/04 21:20:44;;;;;;;4.57;2.47;;;;;;;4.17;64.42;91888.13;5114173;28;20066;-79
2024/01/04 21:23:11;;;;;;;6.13;2.10;;;;;;;4.13;64.71;91897.44;5112065;28;20437;-79
2024/01/04 21:25:40;;;;;;;2.88;1.75;;;;;;;4.19;63.45;91906.00;5115222;28;20118;-79
2024/01/04 21:28:06;;;;;;;3.13;1.80;;;;;;;4.17;63.99;91908.84;5115299;28;20031;-80
2024/01/04 21:30:32;;;;;;;3.50;1.80;;;;;;;4.16;63.75;91912.47;5106658;28;20035;-79
2024/01/04 21:32:58;;;;;;;2.80;1.80;;;;;;;4.16;64.11;91915.06;5088302;28;20024;-78
2024/01/04 21:35:27;;;;;;;6.00;2.13;;;;;;;4.15;64.47;91923.09;5090607;28;20170;-78
2024/01/04 21:37:54;;;;;;;4.65;2.25;;;;;;;4.09;65.54;91916.38;5109368;28;20035;-78
2024/01/04 21:40:20;;;;;;;4.13;2.25;;;;;;;4.09;64.93;91917.13;5105331;28;20376;-78
2024/01/04 21:42:46;;;;;;;3.40;1.85;;;;;;;4.08;64.92;91920.78;5110244;28;20070;-78
2024/01/04 21:45:12;;;;;;;2.75;1.58;;;;;;;4.07;65.03;91918.44;5092190;28;20047;-77
2024/01/04 21:47:37;;;;;;;3.47;1.70;;;;;;;4.05;65.57;91915.31;5088448;28;20031;-78
2024/01/04 21:50:03;;;;;;;2.35;1.52;;;;;;;4.05;65.61;91920.50;5105346;28;20095;-78
2024/01/04 21:52:28;;;;;;;3.50;2.00;;;;;;;4.04;65.80;91917.16;5109475;28;20039;-78
2024/01/04 21:54:54;;;;;;;3.58;1.90;;;;;;;4.00;66.30;91923.09;5111747;28;20032;-79
2024/01/04 21:57:19;;;;;;;3.95;2.28;;;;;;;3.92;65.79;91916.63;5112612;28;20023;-78
2024/01/04 21:59:45;;;;;;;3.05;1.70;;;;;;;3.99;64.91;91926.75;5090530;28;20456;-78
2024/01/04 22:02:11;;;;;;;2.33;1.50;;;;;;;3.96;65.28;91920.25;5110824;28;20093;-78
2024/01/04 22:04:36;;;;;;;3.28;1.45;;;;;;;3.92;66.33;91917.41;5109762;28;20154;-78
2024/01/04 22:07:02;;;;;;;4.22;1.50;;;;;;;3.89;65.95;91922.31;5090080;28;20054;-77
2024/01/04 22:09:30;;;;;;;2.30;1.50;;;;;;;3.86;66.33;91922.84;5106872;28;20053;-79
2024/01/04 22:11:56;;;;;;;3.50;1.85;;;;;;;3.84;67.14;91925.69;5105755;28;20039;-79
2024/01/04 22:14:22;;;;;;;3.50;1.70;;;;;;;3.79;66.89;91930.88;5111560;28;20035;-78
2024/01/04 22:16:48;;;;;;;2.92;1.73;;;;;;;3.82;65.60;91938.09;5092467;28;20068;-79
2024/01/04 22:19:13;;;;;;;3.92;1.77;;;;;;;3.80;65.70;91945.34;5085297;28;20093;-78
2024/01/04 22:21:39;;;;;;;2.10;1.40;;;;;;;3.79;66.52;91940.44;5088146;28;20055;-78
